Lewis Run, PA

3:08 AM EST on December 20, 2014 (GMT -0500)
Bradford Regional | Change Station
CLOSE
Current Station
Airport
Location: Bradford,
Elevation: 2142 ft
Nearby Weather Stations

Elev 2142 ft 41.80 °N, 78.64 °W | Updated 15 minutes ago

Overcast
Overcast
22 °F
Feels Like 16 °F
N
5
Wind Variable Wind from Variable

Today
High -- | Low -- °F
--% Chance of Precip.
Yesterday
High -- | Low -- °F
Precip. -- in
7:38 AM 4:46 PM
Waning Crescent, 4% visible
Pressure 30.23 in
Visibility 8.0 miles
Clouds Overcast 700 ft
Windchill 16 °F
Dew Point 18 °F
Humidity 85%
Rainfall 0.00 in
Snow Depth Not available.
UV 0 out of 12
Pollen .10 out of 12
Air Quality Not available.
Flu Activity Not available.
METAR KBFD 200753Z AUTO VRB04KT 8SM OVC007 M06/M08 A3015 RMK AO2 SLP237 T10561078

More Conditions Fewer Conditions

Pressure 30.23 in
Visibility 8.0 miles
Clouds Overcast 700 ft
Windchill 16 °F
Dew Point 18 °F
Humidity 85%
Rainfall 0.00 in
Snow Depth Not available.
UV 0 out of 12
Pollen .10 out of 12
Air Quality Not available.
Flu Activity Not available.
METAR KBFD 200753Z AUTO VRB04KT 8SM OVC007 M06/M08 A3015 RMK AO2 SLP237 T10561078

More Conditions Fewer Conditions

10-Day Weather Forecast

Almanac

Astronomy

Dec. 20, 2014 Rise Set
Actual Time
Civil Twilight
Nautical Twilight
Astronomical Twilight
Moon
Length of Visible Light
Length of Day
Tomorrow will be .
, % of the Moon is Illuminated

Today's Extremes

State Highs State Lows

Community

WunderPhotos

Upload Photos

1,779,146 photos uploaded!

WunderBlogs® & News

Nearby

Air Quality

  Air Quality AQ Index Pollutant
Not available.

Snow Depth

Station Depth Elevation

Earthquake Activity

City Distance Mag. Time & Date
Minimum magnitude displayed is 2.5.

Coastal Water Temperatures

Place Temperature

Nearby Weather Stations